Arnott, Wisconsin
Current Conditions -  °F | °C
As of 7:15 PM on Wednesday 22 Oct 2014 (Local Time) from KSTE Reporting Station
Clear Clear  
Wind Chill: 43°   Ceiling: Unl
Heat Index: 45°   Visibility: 10mi
Dew Point: 33°   Wind: 5mph
Humidity: 63%   Direction: 130°SE
Pressure: 30.21"   Gusts: NA
Location:  44.5531°N, 89.5186°W
Report Text: KSTE 230015Z AUTO 13004KT 10SM CLR 07/01 A3021 RMK AO2 T00720005
Loading
Personal Weather Stations






























Interactive Weather Map
Tropical Storm Tracking
New forecast layout! Learn more

10-Day Weather Forecast

Advertisements
Track Severe Weather on mobile